Catàleg de serveis del Meteocat
Campanya meteocatpedra

Dades de l'estació automàtica l'Ametlla de Mar

?
?
Resum diari 23:00 TU
Dades diàries de l'estació meteorològica
Temperatura mitjana 26.6 °C
Temperatura màxima 34.7 °C 14:33 TU
Temperatura mínima 21.1 °C 23:15 TU
Humitat relativa mitjana 49%
Precipitació acumulada 0.0 mm
Ratxa màxima del vent (2 m) 34.9 km/h - 330º 6:52 TU
Irradiació solar global 29.6 MJ/m2

El tram horari està expressat en Temps Universal (TU). Cal sumar una hora en horari d'hivern i dues en horari d'estiu per passar a l'hora oficial.

l'Ametlla de Mar

Metadades estació meteorol´gica
Municipi L'Ametlla de Mar
Comarca Baix Ebre
Altitud 93 m
Data alta 29.08.1995
Estat actual Operativa
Dades de període
Període
TU
TM
°C
TX
°C
TN
°C
HRM
%
PPT
mm
VVM (2 m)
km/h
DVM (2 m)
graus
VVX (2 m)
km/h
RS
W/m2
00:00 - 00:30 24.3 24.6 23.9 45 0.0 4.7 297 14.8 0
00:30 - 01:00 23.7 23.9 23.2 47 0.0 4.7 284 16.6 0
01:00 - 01:30 23.1 23.3 23.0 48 0.0 6.1 286 17.6 0
01:30 - 02:00 22.9 23.2 22.7 47 0.0 6.8 287 22.0 0
02:00 - 02:30 22.7 22.8 22.6 46 0.0 6.5 304 18.0 0
02:30 - 03:00 22.6 22.7 22.3 46 0.0 6.1 309 19.4 0
03:00 - 03:30 22.4 22.5 22.2 46 0.0 6.1 308 18.0 0
03:30 - 04:00 22.2 22.3 22.2 46 0.0 7.9 303 28.1 0
04:00 - 04:30 22.1 22.3 22.0 47 0.0 9.7 309 26.6 0
04:30 - 05:00 22.0 22.1 21.9 47 0.0 9.7 321 26.3 10
05:00 - 05:30 22.0 22.1 22.0 48 0.0 9.4 319 24.5 65
05:30 - 06:00 22.4 22.6 22.2 48 0.0 10.4 324 25.9 144
06:00 - 06:30 22.9 23.1 22.6 48 0.0 9.7 324 27.4 233
06:30 - 07:00 23.5 23.8 23.1 47 0.0 10.4 322 34.9 323
07:00 - 07:30 24.1 24.7 23.7 47 0.0 10.1 324 31.7 416
07:30 - 08:00 24.8 25.3 24.5 46 0.0 10.4 317 26.3 507
08:00 - 08:30 25.4 26.1 25.1 44 0.0 10.4 322 31.0 592
08:30 - 09:00 26.2 26.9 25.6 43 0.0 9.7 322 25.2 671
09:00 - 09:30 26.9 28.0 26.4 41 0.0 10.1 318 27.0 739
09:30 - 10:00 27.8 28.6 27.4 40 0.0 10.1 326 28.4 804
10:00 - 10:30 29.1 29.8 28.5 38 0.0 10.1 333 28.4 856
10:30 - 11:00 29.8 30.3 29.3 37 0.0 9.0 324 25.6 896
11:00 - 11:30 30.6 31.3 29.8 36 0.0 7.2 327 25.9 919
11:30 - 12:00 30.7 31.4 30.1 36 0.0 9.7 332 27.4 936
12:00 - 12:30 31.7 32.2 31.2 34 0.0 8.3 319 22.7 940
12:30 - 13:00 32.3 33.2 31.8 33 0.0 8.3 311 22.3 933
13:00 - 13:30 33.1 33.8 32.6 30 0.0 7.2 302 22.7 910
13:30 - 14:00 33.4 34.0 33.0 30 0.0 7.2 325 21.2 850
14:00 - 14:30 33.7 34.4 33.0 30 0.0 6.8 297 18.4 801
14:30 - 15:00 34.2 34.7 33.5 29 0.0 5.4 279 17.3 735
15:00 - 15:30 32.6 34.4 31.4 38 0.0 5.8 167 15.8 684
15:30 - 16:00 32.4 34.1 31.6 37 0.0 4.7 224 16.6 616
16:00 - 16:30 34.1 34.6 33.7 26 0.0 7.2 263 21.6 535
16:30 - 17:00 33.9 34.2 32.3 25 0.0 6.1 277 20.2 445
17:00 - 17:30 30.1 31.8 29.3 45 0.0 6.1 194 17.3 354
17:30 - 18:00 29.6 31.5 29.1 45 0.0 6.1 193 17.3 262
18:00 - 18:30 28.8 32.6 26.4 50 0.0 10.1 66 25.2 165
18:30 - 19:00 25.9 26.4 25.6 68 0.0 10.4 76 21.6 76
19:00 - 19:30 25.0 25.5 24.7 73 0.0 9.0 77 18.0 12
19:30 - 20:00 24.5 24.7 24.3 74 0.0 7.6 76 16.9 1
20:00 - 20:30 24.2 24.3 24.1 73 0.0 5.0 88 11.9 0
20:30 - 21:00 24.0 24.1 23.8 75 0.0 3.6 89 9.0 0
21:00 - 21:30 23.7 23.8 23.3 77 0.0 1.4 106 5.4 0
21:30 - 22:00 23.0 23.3 22.8 81 0.0 1.1 44 3.2 0
22:00 - 22:30 22.3 22.8 21.8 83 0.0 0.0 215 1.1 0
22:30 - 23:00 21.6 21.8 21.3 85 0.0 0.7 255 4.0 0
23:00 - 23:30 21.3 21.4 21.1 85 0.0 0.4 299 2.5 0

Les dades en taronja només han passat un control de qualitat automàtic. Resta pendent la seva validació definitiva.